<?xml version="1.0" encoding="utf-8"?>
<gpx xmlns:xsi="http://www.w3.org/2001/XMLSchema-instance" xmlns:xsd="http://www.w3.org/2001/XMLSchema" version="1.1" creator="Shapelink.com" xmlns="http://www.topografix.com/GPX/1/1" xmlns:gpxtpx="http://www.garmin.com/xmlschemas/TrackPointExtension/v1">
  <metadata>
    <name>Løping 3.02 km, 2012-06-02</name>
    <desc></desc>
    <author><name>Mikael Blom</name></author> 
    <time>2012-06-02T18:49:35Z</time>
  </metadata>
  <trk>
    <name>Løping 3.02 km, 2012-06-02</name>
    <trkseg>
      <trkpt lat="59.9866135" lon="17.7377449">
        <ele>147.7</ele>
        <time>2012-06-02T18:49:35Z</time>
      </trkpt>
      <trkpt lat="59.9867953" lon="17.7384492">
        <ele>111.17</ele>
        <time>2012-06-02T18:49:40Z</time>
      </trkpt>
      <trkpt lat="59.986844" lon="17.7386282">
        <ele>97.7112</ele>
        <time>2012-06-02T18:49:43Z</time>
      </trkpt>
      <trkpt lat="59.9869317" lon="17.7389435">
        <ele>80.8882</ele>
        <time>2012-06-02T18:49:46Z</time>
      </trkpt>
      <trkpt lat="59.9870051" lon="17.739003">
        <ele>84.7334</ele>
        <time>2012-06-02T18:49:49Z</time>
      </trkpt>
      <trkpt lat="59.9870994" lon="17.7390144">
        <ele>85.6946</ele>
        <time>2012-06-02T18:49:53Z</time>
      </trkpt>
      <trkpt lat="59.9872123" lon="17.7391014">
        <ele>77.5234</ele>
        <time>2012-06-02T18:49:58Z</time>
      </trkpt>
      <trkpt lat="59.9873509" lon="17.7391438">
        <ele>70.7942</ele>
        <time>2012-06-02T18:50:03Z</time>
      </trkpt>
      <trkpt lat="59.9874744" lon="17.7392123">
        <ele>62.1423</ele>
        <time>2012-06-02T18:50:08Z</time>
      </trkpt>
      <trkpt lat="59.9875843" lon="17.7392096">
        <ele>60.2197</ele>
        <time>2012-06-02T18:50:13Z</time>
      </trkpt>
      <trkpt lat="59.9876577" lon="17.739231">
        <ele>59.2584</ele>
        <time>2012-06-02T18:50:16Z</time>
      </trkpt>
      <trkpt lat="59.9878028" lon="17.7392412">
        <ele>55.8938</ele>
        <time>2012-06-02T18:50:22Z</time>
      </trkpt>
      <trkpt lat="59.9878732" lon="17.7391713">
        <ele>60.2197</ele>
        <time>2012-06-02T18:50:26Z</time>
      </trkpt>
      <trkpt lat="59.9878956" lon="17.7391638">
        <ele>60.2197</ele>
        <time>2012-06-02T18:50:27Z</time>
      </trkpt>
      <trkpt lat="59.9880529" lon="17.739147">
        <ele>61.181</ele>
        <time>2012-06-02T18:50:34Z</time>
      </trkpt>
      <trkpt lat="59.9881425" lon="17.7390768">
        <ele>63.1036</ele>
        <time>2012-06-02T18:50:38Z</time>
      </trkpt>
      <trkpt lat="59.9882333" lon="17.7390636">
        <ele>62.1423</ele>
        <time>2012-06-02T18:50:42Z</time>
      </trkpt>
      <trkpt lat="59.9883807" lon="17.7390369">
        <ele>62.1423</ele>
        <time>2012-06-02T18:50:48Z</time>
      </trkpt>
      <trkpt lat="59.9884783" lon="17.7390097">
        <ele>61.6617</ele>
        <time>2012-06-02T18:50:52Z</time>
      </trkpt>
      <trkpt lat="59.9885265" lon="17.7389819">
        <ele>61.181</ele>
        <time>2012-06-02T18:50:54Z</time>
      </trkpt>
      <trkpt lat="59.988657" lon="17.7389088">
        <ele>61.6617</ele>
        <time>2012-06-02T18:50:59Z</time>
      </trkpt>
      <trkpt lat="59.9887627" lon="17.7388218">
        <ele>62.6229</ele>
        <time>2012-06-02T18:51:04Z</time>
      </trkpt>
      <trkpt lat="59.9888517" lon="17.7387715">
        <ele>61.181</ele>
        <time>2012-06-02T18:51:08Z</time>
      </trkpt>
      <trkpt lat="59.9889904" lon="17.7386172">
        <ele>65.5071</ele>
        <time>2012-06-02T18:51:14Z</time>
      </trkpt>
      <trkpt lat="59.9891015" lon="17.738551">
        <ele>65.9877</ele>
        <time>2012-06-02T18:51:19Z</time>
      </trkpt>
      <trkpt lat="59.98922" lon="17.7384612">
        <ele>66.4683</ele>
        <time>2012-06-02T18:51:24Z</time>
      </trkpt>
      <trkpt lat="59.9893451" lon="17.7384181">
        <ele>65.9877</ele>
        <time>2012-06-02T18:51:29Z</time>
      </trkpt>
      <trkpt lat="59.989471" lon="17.7384047">
        <ele>64.0651</ele>
        <time>2012-06-02T18:51:34Z</time>
      </trkpt>
      <trkpt lat="59.9896721" lon="17.7384126">
        <ele>61.181</ele>
        <time>2012-06-02T18:51:40Z</time>
      </trkpt>
      <trkpt lat="59.9897449" lon="17.7383837">
        <ele>61.181</ele>
        <time>2012-06-02T18:51:44Z</time>
      </trkpt>
      <trkpt lat="59.9898519" lon="17.7382914">
        <ele>60.7003</ele>
        <time>2012-06-02T18:51:50Z</time>
      </trkpt>
      <trkpt lat="59.9898883" lon="17.7382805">
        <ele>60.7003</ele>
        <time>2012-06-02T18:51:52Z</time>
      </trkpt>
      <trkpt lat="59.9900303" lon="17.7382037">
        <ele>62.1423</ele>
        <time>2012-06-02T18:51:58Z</time>
      </trkpt>
      <trkpt lat="59.9901278" lon="17.7381607">
        <ele>61.6617</ele>
        <time>2012-06-02T18:52:02Z</time>
      </trkpt>
      <trkpt lat="59.9902334" lon="17.738081">
        <ele>62.6229</ele>
        <time>2012-06-02T18:52:07Z</time>
      </trkpt>
      <trkpt lat="59.9903328" lon="17.7380252">
        <ele>61.6617</ele>
        <time>2012-06-02T18:52:11Z</time>
      </trkpt>
      <trkpt lat="59.9903841" lon="17.7379798">
        <ele>62.6229</ele>
        <time>2012-06-02T18:52:13Z</time>
      </trkpt>
      <trkpt lat="59.9905004" lon="17.7379573">
        <ele>60.7003</ele>
        <time>2012-06-02T18:52:18Z</time>
      </trkpt>
      <trkpt lat="59.9906115" lon="17.737897">
        <ele>60.7003</ele>
        <time>2012-06-02T18:52:23Z</time>
      </trkpt>
      <trkpt lat="59.9906642" lon="17.7378539">
        <ele>61.181</ele>
        <time>2012-06-02T18:52:25Z</time>
      </trkpt>
      <trkpt lat="59.9908182" lon="17.7377654">
        <ele>59.7391</ele>
        <time>2012-06-02T18:52:31Z</time>
      </trkpt>
      <trkpt lat="59.9909042" lon="17.7377195">
        <ele>59.2584</ele>
        <time>2012-06-02T18:52:34Z</time>
      </trkpt>
      <trkpt lat="59.9910263" lon="17.737668">
        <ele>61.181</ele>
        <time>2012-06-02T18:52:39Z</time>
      </trkpt>
      <trkpt lat="59.9911528" lon="17.737574">
        <ele>64.0651</ele>
        <time>2012-06-02T18:52:44Z</time>
      </trkpt>
      <trkpt lat="59.9912615" lon="17.7375041">
        <ele>64.0651</ele>
        <time>2012-06-02T18:52:49Z</time>
      </trkpt>
      <trkpt lat="59.9914033" lon="17.7374764">
        <ele>62.6229</ele>
        <time>2012-06-02T18:52:54Z</time>
      </trkpt>
      <trkpt lat="59.9915336" lon="17.7375112">
        <ele>62.1423</ele>
        <time>2012-06-02T18:52:59Z</time>
      </trkpt>
      <trkpt lat="59.9916288" lon="17.7375015">
        <ele>64.0651</ele>
        <time>2012-06-02T18:53:03Z</time>
      </trkpt>
      <trkpt lat="59.9917901" lon="17.7375195">
        <ele>63.1036</ele>
        <time>2012-06-02T18:53:09Z</time>
      </trkpt>
      <trkpt lat="59.9918894" lon="17.7374884">
        <ele>67.9103</ele>
        <time>2012-06-02T18:53:13Z</time>
      </trkpt>
      <trkpt lat="59.9920034" lon="17.7374387">
        <ele>66.4683</ele>
        <time>2012-06-02T18:53:18Z</time>
      </trkpt>
      <trkpt lat="59.9921163" lon="17.7373579">
        <ele>66.949</ele>
        <time>2012-06-02T18:53:23Z</time>
      </trkpt>
      <trkpt lat="59.9921614" lon="17.7373262">
        <ele>67.9103</ele>
        <time>2012-06-02T18:53:25Z</time>
      </trkpt>
      <trkpt lat="59.9922754" lon="17.7373677">
        <ele>71.2749</ele>
        <time>2012-06-02T18:53:29Z</time>
      </trkpt>
      <trkpt lat="59.9922231" lon="17.7374419">
        <ele>75.1202</ele>
        <time>2012-06-02T18:53:33Z</time>
      </trkpt>
      <trkpt lat="59.9921827" lon="17.7375232">
        <ele>73.6782</ele>
        <time>2012-06-02T18:53:36Z</time>
      </trkpt>
      <trkpt lat="59.9921199" lon="17.73751">
        <ele>77.0428</ele>
        <time>2012-06-02T18:53:38Z</time>
      </trkpt>
      <trkpt lat="59.9919396" lon="17.7375345">
        <ele>85.214</ele>
        <time>2012-06-02T18:53:43Z</time>
      </trkpt>
      <trkpt lat="59.9918325" lon="17.7374984">
        <ele>90.0206</ele>
        <time>2012-06-02T18:53:47Z</time>
      </trkpt>
      <trkpt lat="59.9917045" lon="17.7374722">
        <ele>93.8658</ele>
        <time>2012-06-02T18:53:52Z</time>
      </trkpt>
      <trkpt lat="59.991567" lon="17.7374739">
        <ele>98.6725</ele>
        <time>2012-06-02T18:53:57Z</time>
      </trkpt>
      <trkpt lat="59.9914182" lon="17.7375383">
        <ele>98.6725</ele>
        <time>2012-06-02T18:54:03Z</time>
      </trkpt>
      <trkpt lat="59.9913199" lon="17.7375356">
        <ele>98.6725</ele>
        <time>2012-06-02T18:54:07Z</time>
      </trkpt>
      <trkpt lat="59.9911704" lon="17.7375942">
        <ele>100.595</ele>
        <time>2012-06-02T18:54:12Z</time>
      </trkpt>
      <trkpt lat="59.9910414" lon="17.7375763">
        <ele>105.882</ele>
        <time>2012-06-02T18:54:17Z</time>
      </trkpt>
      <trkpt lat="59.9909725" lon="17.7376382">
        <ele>105.402</ele>
        <time>2012-06-02T18:54:19Z</time>
      </trkpt>
      <trkpt lat="59.9908783" lon="17.7376013">
        <ele>104.921</ele>
        <time>2012-06-02T18:54:25Z</time>
      </trkpt>
      <trkpt lat="59.9908596" lon="17.737591">
        <ele>104.921</ele>
        <time>2012-06-02T18:54:26Z</time>
      </trkpt>
      <trkpt lat="59.9907375" lon="17.7377361">
        <ele>104.921</ele>
        <time>2012-06-02T18:54:33Z</time>
      </trkpt>
      <trkpt lat="59.9906741" lon="17.7377708">
        <ele>104.921</ele>
        <time>2012-06-02T18:54:36Z</time>
      </trkpt>
      <trkpt lat="59.9905232" lon="17.7378384">
        <ele>102.518</ele>
        <time>2012-06-02T18:54:42Z</time>
      </trkpt>
      <trkpt lat="59.99037" lon="17.7380183">
        <ele>98.1919</ele>
        <time>2012-06-02T18:54:46Z</time>
      </trkpt>
      <trkpt lat="59.9902344" lon="17.7380924">
        <ele>94.8271</ele>
        <time>2012-06-02T18:54:51Z</time>
      </trkpt>
      <trkpt lat="59.9901387" lon="17.7380769">
        <ele>95.7885</ele>
        <time>2012-06-02T18:54:55Z</time>
      </trkpt>
      <trkpt lat="59.9900897" lon="17.7380914">
        <ele>93.8658</ele>
        <time>2012-06-02T18:54:58Z</time>
      </trkpt>
      <trkpt lat="59.989946" lon="17.7381302">
        <ele>91.9432</ele>
        <time>2012-06-02T18:55:03Z</time>
      </trkpt>
      <trkpt lat="59.9899009" lon="17.7381478">
        <ele>90.5013</ele>
        <time>2012-06-02T18:55:05Z</time>
      </trkpt>
      <trkpt lat="59.9898277" lon="17.7381746">
        <ele>89.0593</ele>
        <time>2012-06-02T18:55:09Z</time>
      </trkpt>
      <trkpt lat="59.9897826" lon="17.7382104">
        <ele>87.1366</ele>
        <time>2012-06-02T18:55:11Z</time>
      </trkpt>
      <trkpt lat="59.9896561" lon="17.7382955">
        <ele>85.214</ele>
        <time>2012-06-02T18:55:16Z</time>
      </trkpt>
      <trkpt lat="59.9896195" lon="17.7383617">
        <ele>84.2527</ele>
        <time>2012-06-02T18:55:19Z</time>
      </trkpt>
      <trkpt lat="59.9895803" lon="17.7383764">
        <ele>85.214</ele>
        <time>2012-06-02T18:55:22Z</time>
      </trkpt>
      <trkpt lat="59.9894403" lon="17.7383536">
        <ele>82.8108</ele>
        <time>2012-06-02T18:55:27Z</time>
      </trkpt>
      <trkpt lat="59.9894195" lon="17.7383493">
        <ele>82.8108</ele>
        <time>2012-06-02T18:55:28Z</time>
      </trkpt>
      <trkpt lat="59.9893693" lon="17.7383945">
        <ele>80.4075</ele>
        <time>2012-06-02T18:55:30Z</time>
      </trkpt>
      <trkpt lat="59.9892351" lon="17.7386183">
        <ele>70.7942</ele>
        <time>2012-06-02T18:55:35Z</time>
      </trkpt>
      <trkpt lat="59.9892135" lon="17.7386249">
        <ele>70.7942</ele>
        <time>2012-06-02T18:55:36Z</time>
      </trkpt>
      <trkpt lat="59.989119" lon="17.7387159">
        <ele>71.7555</ele>
        <time>2012-06-02T18:55:42Z</time>
      </trkpt>
      <trkpt lat="59.9890153" lon="17.7387706">
        <ele>72.7169</ele>
        <time>2012-06-02T18:55:46Z</time>
      </trkpt>
      <trkpt lat="59.9888596" lon="17.7388962">
        <ele>76.5621</ele>
        <time>2012-06-02T18:55:52Z</time>
      </trkpt>
      <trkpt lat="59.9886877" lon="17.7389487">
        <ele>82.3301</ele>
        <time>2012-06-02T18:55:56Z</time>
      </trkpt>
      <trkpt lat="59.9885716" lon="17.7390107">
        <ele>83.772</ele>
        <time>2012-06-02T18:56:00Z</time>
      </trkpt>
      <trkpt lat="59.9884618" lon="17.7390977">
        <ele>89.0593</ele>
        <time>2012-06-02T18:56:05Z</time>
      </trkpt>
      <trkpt lat="59.9884535" lon="17.7391186">
        <ele>89.0593</ele>
        <time>2012-06-02T18:56:06Z</time>
      </trkpt>
      <trkpt lat="59.9884012" lon="17.7391597">
        <ele>83.2914</ele>
        <time>2012-06-02T18:56:11Z</time>
      </trkpt>
      <trkpt lat="59.9882685" lon="17.7392275">
        <ele>87.1366</ele>
        <time>2012-06-02T18:56:15Z</time>
      </trkpt>
      <trkpt lat="59.9881244" lon="17.7392667">
        <ele>87.6172</ele>
        <time>2012-06-02T18:56:20Z</time>
      </trkpt>
      <trkpt lat="59.9880784" lon="17.7392751">
        <ele>87.6172</ele>
        <time>2012-06-02T18:56:23Z</time>
      </trkpt>
      <trkpt lat="59.9880202" lon="17.7392907">
        <ele>86.656</ele>
        <time>2012-06-02T18:56:26Z</time>
      </trkpt>
      <trkpt lat="59.9878822" lon="17.7393238">
        <ele>87.1366</ele>
        <time>2012-06-02T18:56:31Z</time>
      </trkpt>
      <trkpt lat="59.9877703" lon="17.7393381">
        <ele>86.1753</ele>
        <time>2012-06-02T18:56:36Z</time>
      </trkpt>
      <trkpt lat="59.9877159" lon="17.7393518">
        <ele>82.8108</ele>
        <time>2012-06-02T18:56:40Z</time>
      </trkpt>
      <trkpt lat="59.9876351" lon="17.739346">
        <ele>80.4075</ele>
        <time>2012-06-02T18:56:44Z</time>
      </trkpt>
      <trkpt lat="59.9875266" lon="17.7393558">
        <ele>81.8494</ele>
        <time>2012-06-02T18:56:48Z</time>
      </trkpt>
      <trkpt lat="59.9873906" lon="17.7393969">
        <ele>82.3301</ele>
        <time>2012-06-02T18:56:53Z</time>
      </trkpt>
      <trkpt lat="59.9872337" lon="17.7394227">
        <ele>86.1753</ele>
        <time>2012-06-02T18:56:57Z</time>
      </trkpt>
      <trkpt lat="59.9870626" lon="17.7394475">
        <ele>88.5787</ele>
        <time>2012-06-02T18:57:02Z</time>
      </trkpt>
      <trkpt lat="59.986944" lon="17.7394251">
        <ele>89.5399</ele>
        <time>2012-06-02T18:57:07Z</time>
      </trkpt>
      <trkpt lat="59.986844" lon="17.7393656">
        <ele>88.098</ele>
        <time>2012-06-02T18:57:11Z</time>
      </trkpt>
      <trkpt lat="59.986772" lon="17.7392976">
        <ele>85.6946</ele>
        <time>2012-06-02T18:57:15Z</time>
      </trkpt>
      <trkpt lat="59.9867077" lon="17.7392016">
        <ele>80.4075</ele>
        <time>2012-06-02T18:57:19Z</time>
      </trkpt>
      <trkpt lat="59.9866258" lon="17.7390944">
        <ele>75.6008</ele>
        <time>2012-06-02T18:57:24Z</time>
      </trkpt>
      <trkpt lat="59.9865522" lon="17.7390051">
        <ele>72.7169</ele>
        <time>2012-06-02T18:57:28Z</time>
      </trkpt>
      <trkpt lat="59.9864461" lon="17.7389228">
        <ele>67.9103</ele>
        <time>2012-06-02T18:57:33Z</time>
      </trkpt>
      <trkpt lat="59.9863441" lon="17.7388394">
        <ele>68.3909</ele>
        <time>2012-06-02T18:57:37Z</time>
      </trkpt>
      <trkpt lat="59.9862821" lon="17.7387643">
        <ele>69.3523</ele>
        <time>2012-06-02T18:57:40Z</time>
      </trkpt>
      <trkpt lat="59.9862105" lon="17.7387082">
        <ele>70.3135</ele>
        <time>2012-06-02T18:57:44Z</time>
      </trkpt>
      <trkpt lat="59.9860577" lon="17.7386223">
        <ele>71.7555</ele>
        <time>2012-06-02T18:57:49Z</time>
      </trkpt>
      <trkpt lat="59.9859524" lon="17.7385794">
        <ele>72.7169</ele>
        <time>2012-06-02T18:57:53Z</time>
      </trkpt>
      <trkpt lat="59.9858254" lon="17.738503">
        <ele>74.1588</ele>
        <time>2012-06-02T18:57:58Z</time>
      </trkpt>
      <trkpt lat="59.9857127" lon="17.7384219">
        <ele>78.004</ele>
        <time>2012-06-02T18:58:03Z</time>
      </trkpt>
      <trkpt lat="59.9856301" lon="17.738364">
        <ele>76.5621</ele>
        <time>2012-06-02T18:58:07Z</time>
      </trkpt>
      <trkpt lat="59.9855702" lon="17.7383518">
        <ele>73.1976</ele>
        <time>2012-06-02T18:58:11Z</time>
      </trkpt>
      <trkpt lat="59.9854039" lon="17.7383313">
        <ele>70.7942</ele>
        <time>2012-06-02T18:58:17Z</time>
      </trkpt>
      <trkpt lat="59.9852754" lon="17.7382925">
        <ele>70.7942</ele>
        <time>2012-06-02T18:58:21Z</time>
      </trkpt>
      <trkpt lat="59.9851689" lon="17.7382504">
        <ele>70.3135</ele>
        <time>2012-06-02T18:58:25Z</time>
      </trkpt>
      <trkpt lat="59.9851077" lon="17.738197">
        <ele>69.8329</ele>
        <time>2012-06-02T18:58:28Z</time>
      </trkpt>
      <trkpt lat="59.9850005" lon="17.7382006">
        <ele>69.3523</ele>
        <time>2012-06-02T18:58:32Z</time>
      </trkpt>
      <trkpt lat="59.9849318" lon="17.7381846">
        <ele>68.8716</ele>
        <time>2012-06-02T18:58:36Z</time>
      </trkpt>
      <trkpt lat="59.9848259" lon="17.738171">
        <ele>66.949</ele>
        <time>2012-06-02T18:58:41Z</time>
      </trkpt>
      <trkpt lat="59.9847319" lon="17.7381394">
        <ele>65.5071</ele>
        <time>2012-06-02T18:58:46Z</time>
      </trkpt>
      <trkpt lat="59.9846534" lon="17.7381111">
        <ele>65.9877</ele>
        <time>2012-06-02T18:58:49Z</time>
      </trkpt>
      <trkpt lat="59.9845193" lon="17.7380853">
        <ele>64.0651</ele>
        <time>2012-06-02T18:58:54Z</time>
      </trkpt>
      <trkpt lat="59.9843932" lon="17.7380379">
        <ele>65.5071</ele>
        <time>2012-06-02T18:58:59Z</time>
      </trkpt>
      <trkpt lat="59.9842186" lon="17.7380188">
        <ele>70.7942</ele>
        <time>2012-06-02T18:59:05Z</time>
      </trkpt>
      <trkpt lat="59.9840732" lon="17.7380214">
        <ele>75.6008</ele>
        <time>2012-06-02T18:59:09Z</time>
      </trkpt>
      <trkpt lat="59.983952" lon="17.7380086">
        <ele>77.0428</ele>
        <time>2012-06-02T18:59:14Z</time>
      </trkpt>
      <trkpt lat="59.9839251" lon="17.7380009">
        <ele>72.2362</ele>
        <time>2012-06-02T18:59:19Z</time>
      </trkpt>
      <trkpt lat="59.9838953" lon="17.7381047">
        <ele>71.7555</ele>
        <time>2012-06-02T18:59:21Z</time>
      </trkpt>
      <trkpt lat="59.9838881" lon="17.7380303">
        <ele>66.4683</ele>
        <time>2012-06-02T18:59:24Z</time>
      </trkpt>
      <trkpt lat="59.983744" lon="17.7381156">
        <ele>60.2197</ele>
        <time>2012-06-02T18:59:28Z</time>
      </trkpt>
      <trkpt lat="59.9836565" lon="17.738119">
        <ele>53.9712</ele>
        <time>2012-06-02T18:59:33Z</time>
      </trkpt>
      <trkpt lat="59.9835513" lon="17.7381335">
        <ele>50.6066</ele>
        <time>2012-06-02T18:59:38Z</time>
      </trkpt>
      <trkpt lat="59.9834861" lon="17.7381487">
        <ele>50.126</ele>
        <time>2012-06-02T18:59:41Z</time>
      </trkpt>
      <trkpt lat="59.9833531" lon="17.7381954">
        <ele>51.0872</ele>
        <time>2012-06-02T18:59:47Z</time>
      </trkpt>
      <trkpt lat="59.9831779" lon="17.7382546">
        <ele>52.0486</ele>
        <time>2012-06-02T18:59:54Z</time>
      </trkpt>
      <trkpt lat="59.9830035" lon="17.738297">
        <ele>53.9712</ele>
        <time>2012-06-02T19:00:00Z</time>
      </trkpt>
      <trkpt lat="59.9829626" lon="17.7383131">
        <ele>54.9324</ele>
        <time>2012-06-02T19:00:01Z</time>
      </trkpt>
      <trkpt lat="59.9828694" lon="17.7383165">
        <ele>55.4131</ele>
        <time>2012-06-02T19:00:05Z</time>
      </trkpt>
      <trkpt lat="59.9828091" lon="17.7382757">
        <ele>56.8551</ele>
        <time>2012-06-02T19:00:09Z</time>
      </trkpt>
      <trkpt lat="59.9826646" lon="17.7382644">
        <ele>59.2584</ele>
        <time>2012-06-02T19:00:15Z</time>
      </trkpt>
      <trkpt lat="59.9825425" lon="17.7382271">
        <ele>62.6229</ele>
        <time>2012-06-02T19:00:20Z</time>
      </trkpt>
      <trkpt lat="59.9824414" lon="17.7382542">
        <ele>63.1036</ele>
        <time>2012-06-02T19:00:24Z</time>
      </trkpt>
      <trkpt lat="59.9823521" lon="17.7381987">
        <ele>65.0264</ele>
        <time>2012-06-02T19:00:30Z</time>
      </trkpt>
      <trkpt lat="59.9823123" lon="17.7382188">
        <ele>65.0264</ele>
        <time>2012-06-02T19:00:32Z</time>
      </trkpt>
      <trkpt lat="59.9822051" lon="17.7382818">
        <ele>65.9877</ele>
        <time>2012-06-02T19:00:36Z</time>
      </trkpt>
      <trkpt lat="59.9821748" lon="17.7382913">
        <ele>65.9877</ele>
        <time>2012-06-02T19:00:38Z</time>
      </trkpt>
      <trkpt lat="59.9820918" lon="17.7383489">
        <ele>65.0264</ele>
        <time>2012-06-02T19:00:41Z</time>
      </trkpt>
      <trkpt lat="59.9819445" lon="17.7383785">
        <ele>61.181</ele>
        <time>2012-06-02T19:00:46Z</time>
      </trkpt>
      <trkpt lat="59.9818248" lon="17.7384326">
        <ele>57.3358</ele>
        <time>2012-06-02T19:00:51Z</time>
      </trkpt>
      <trkpt lat="59.9817184" lon="17.7384478">
        <ele>57.3358</ele>
        <time>2012-06-02T19:00:56Z</time>
      </trkpt>
      <trkpt lat="59.9816243" lon="17.7384571">
        <ele>58.2971</ele>
        <time>2012-06-02T19:01:00Z</time>
      </trkpt>
      <trkpt lat="59.9814237" lon="17.7385486">
        <ele>57.3358</ele>
        <time>2012-06-02T19:01:06Z</time>
      </trkpt>
      <trkpt lat="59.9812488" lon="17.7386467">
        <ele>56.3745</ele>
        <time>2012-06-02T19:01:11Z</time>
      </trkpt>
      <trkpt lat="59.9811019" lon="17.7387195">
        <ele>56.3745</ele>
        <time>2012-06-02T19:01:15Z</time>
      </trkpt>
      <trkpt lat="59.9811086" lon="17.7387136">
        <ele>55.8938</ele>
        <time>2012-06-02T19:01:16Z</time>
      </trkpt>
      <trkpt lat="59.9809448" lon="17.738773">
        <ele>54.4518</ele>
        <time>2012-06-02T19:01:21Z</time>
      </trkpt>
      <trkpt lat="59.9808439" lon="17.7387662">
        <ele>52.0486</ele>
        <time>2012-06-02T19:01:25Z</time>
      </trkpt>
      <trkpt lat="59.9807849" lon="17.7387659">
        <ele>50.6066</ele>
        <time>2012-06-02T19:01:28Z</time>
      </trkpt>
      <trkpt lat="59.9806563" lon="17.7387513">
        <ele>49.6453</ele>
        <time>2012-06-02T19:01:34Z</time>
      </trkpt>
      <trkpt lat="59.9804988" lon="17.7387934">
        <ele>49.6453</ele>
        <time>2012-06-02T19:01:39Z</time>
      </trkpt>
      <trkpt lat="59.9803879" lon="17.738834">
        <ele>49.1646</ele>
        <time>2012-06-02T19:01:43Z</time>
      </trkpt>
      <trkpt lat="59.9802762" lon="17.7389193">
        <ele>48.2034</ele>
        <time>2012-06-02T19:01:47Z</time>
      </trkpt>
      <trkpt lat="59.9801263" lon="17.7388985">
        <ele>48.2034</ele>
        <time>2012-06-02T19:01:53Z</time>
      </trkpt>
      <trkpt lat="59.9800566" lon="17.738869">
        <ele>48.2034</ele>
        <time>2012-06-02T19:01:57Z</time>
      </trkpt>
      <trkpt lat="59.9800356" lon="17.7388641">
        <ele>48.2034</ele>
        <time>2012-06-02T19:01:58Z</time>
      </trkpt>
      <trkpt lat="59.979925" lon="17.7388175">
        <ele>47.7225</ele>
        <time>2012-06-02T19:02:03Z</time>
      </trkpt>
      <trkpt lat="59.979857" lon="17.7387959">
        <ele>48.684</ele>
        <time>2012-06-02T19:02:07Z</time>
      </trkpt>
      <trkpt lat="59.9797633" lon="17.7388493">
        <ele>49.6453</ele>
        <time>2012-06-02T19:02:11Z</time>
      </trkpt>
      <trkpt lat="59.9796961" lon="17.7388924">
        <ele>50.126</ele>
        <time>2012-06-02T19:02:14Z</time>
      </trkpt>
      <trkpt lat="59.9795567" lon="17.7389628">
        <ele>50.126</ele>
        <time>2012-06-02T19:02:18Z</time>
      </trkpt>
      <trkpt lat="59.9794779" lon="17.7389933">
        <ele>48.684</ele>
        <time>2012-06-02T19:02:23Z</time>
      </trkpt>
      <trkpt lat="59.9793707" lon="17.7390589">
        <ele>47.7225</ele>
        <time>2012-06-02T19:02:28Z</time>
      </trkpt>
      <trkpt lat="59.979221" lon="17.7391595">
        <ele>46.2806</ele>
        <time>2012-06-02T19:02:34Z</time>
      </trkpt>
      <trkpt lat="59.9790961" lon="17.7392253">
        <ele>46.2806</ele>
        <time>2012-06-02T19:02:39Z</time>
      </trkpt>
      <trkpt lat="59.9789558" lon="17.7393258">
        <ele>44.8386</ele>
        <time>2012-06-02T19:02:44Z</time>
      </trkpt>
    </trkseg>
  </trk>
</gpx>